الصفحة الرئيسية
METAR-TAF:

METAR-TAF

مطار :

Ivalo, فنلندا

دائرة عرض: 68-37N, خط طول: 027-25E, ارتفاع: 147 متر

مراقبة الطقس الحالي

تاريخ ووقت الإصدار 42 دقيقة قبل الساعة 00:50UTC
ريح 2 عقدة من الغرب/الجنوب الغربي
درجة الحرارة 9°درجة مئوية
الرطوبة 87%
ضغط 1018 hPa
الرؤية 10 كم أو أكثر
الغيوم لا تقل 1500 م ولا وجود لمزنة ركامية السحاب الأسود

METAR: EFIV 140050Z AUTO 24002KT CAVOK 09/07 Q1018

زمن: 04:32 (01:32 UTC)

توقعات

تاريخ ووقت الإصدار 13ساعات و 59 دقيقة قبل الساعة 11:33UTC
التوقعات صالحة من13 الساعة 12 UTC إلى 13 الساعة 15 UTC
ريح 6 عقدة من الشمال
الرؤية 10 كم أو أكثر
غيوم متفرقة على ارتفاع 4500 قدم

TAF: EFIV 131133Z 1312/1315 01006KT 9999 SCT045

أرصاد الطقس والتوقعات من أكثر من 4000 مطار (تقارير الطقس للمطار METAR والتنبؤ بالطقس بالمطارTAF).

المحطات المتاحة هي النقط الصفراء والحمراء على الخريطة.

حرك المؤشر فوق النقطة لمعرفة اسم المحطة.

ثم انقر لمعرفة أرصاد وتوقعات الطقس.

لتغيير الخارطة: اضغط على الأزرار الخضراء مع رمز الصليب الأسود للتكبير. على الزر الأخضر مع شرطة للتصغير، أو على الأسهم الخضراء للخرائط المجاورة.


METAR-TAF: